Time;durP1;ratioP1;P1;durP2;ratioP2;P2;SDS_P1;SDS_P2;PMS_P1;PMS_P2;Temp;Humidity;BMP_temperature;BMP_pressure;BME280_temperature;BME280_humidity;BME280_pressure;Samples;Min_cycle;Max_cycle;Signal;HPM_P1;HPM_P2
2021/09/22 00:01:16;;;;;;;12.70;8.88;;;;;;;;;;5060107;28;20400;-81
2021/09/22 00:03:42;;;;;;;13.00;9.13;;;;;;;;;;5060438;28;20045;-82
2021/09/22 00:06:08;;;;;;;10.25;8.40;;;;;;;;;;5060067;28;20024;-81
2021/09/22 00:08:34;;;;;;;12.45;9.40;;;;;;;;;;5060226;28;20047;-82
2021/09/22 00:11:01;;;;;;;13.60;9.00;;;;;;;;;;5060014;28;20067;-81
2021/09/22 00:13:27;;;;;;;11.93;8.23;;;;;;;;;;5059701;28;20510;-81
2021/09/22 00:15:53;;;;;;;12.15;9.23;;;;;;;;;;5059201;28;20037;-81
2021/09/22 00:18:21;;;;;;;12.35;8.98;;;;;;;;;;5059164;28;20029;-81
2021/09/22 00:20:48;;;;;;;10.25;8.63;;;;;;;;;;5060043;28;20039;-81
2021/09/22 00:23:14;;;;;;;12.07;8.70;;;;;;;;;;5058589;28;20025;-80
2021/09/22 00:25:40;;;;;;;10.40;8.10;;;;;;;;;;5059739;28;20029;-81
2021/09/22 00:28:07;;;;;;;10.50;8.23;;;;;;;;;;5059594;28;20021;-81
2021/09/22 00:30:33;;;;;;;11.13;7.88;;;;;;;;;;5059552;28;20402;-81
2021/09/22 00:33:00;;;;;;;11.68;8.80;;;;;;;;;;5059853;28;20025;-81
2021/09/22 00:35:26;;;;;;;10.90;7.88;;;;;;;;;;5059717;28;20361;-81
2021/09/22 00:37:54;;;;;;;10.82;8.48;;;;;;;;;;5059612;28;20047;-82
2021/09/22 00:40:20;;;;;;;11.55;8.65;;;;;;;;;;5059634;28;20033;-82
2021/09/22 00:42:46;;;;;;;9.70;8.18;;;;;;;;;;5059544;28;20029;-82
2021/09/22 00:45:17;;;;;;;10.45;8.35;;;;;;;;;;5059150;28;20053;-82
2021/09/22 00:47:43;;;;;;;11.70;8.43;;;;;;;;;;5058392;28;20036;-81
2021/09/22 00:50:09;;;;;;;10.95;8.57;;;;;;;;;;5059270;28;20406;-81
2021/09/22 00:52:35;;;;;;;10.48;8.60;;;;;;;;;;5059301;28;20036;-82
2021/09/22 00:55:01;;;;;;;9.98;8.10;;;;;;;;;;5059264;28;20096;-82
2021/09/22 00:57:27;;;;;;;11.68;8.00;;;;;;;;;;5059174;28;20087;-82
2021/09/22 00:59:53;;;;;;;22.48;9.13;;;;;;;;;;5058340;28;20039;-82
2021/09/22 01:02:19;;;;;;;11.00;8.20;;;;;;;;;;5059262;28;20358;-82
2021/09/22 01:04:46;;;;;;;11.40;8.75;;;;;;;;;;5059395;28;20031;-82
2021/09/22 01:07:13;;;;;;;10.65;8.48;;;;;;;;;;5058850;28;20032;-82
2021/09/22 01:09:39;;;;;;;10.25;8.10;;;;;;;;;;5058795;28;20350;-81
2021/09/22 01:12:09;;;;;;;11.73;8.57;;;;;;;;;;5058831;28;20021;-81
2021/09/22 01:14:35;;;;;;;13.30;9.30;;;;;;;;;;5058706;28;20383;-81
2021/09/22 01:17:01;;;;;;;11.10;8.30;;;;;;;;;;5059131;28;20024;-81
2021/09/22 01:19:28;;;;;;;11.02;8.43;;;;;;;;;;5058887;28;20187;-81
2021/09/22 01:21:54;;;;;;;11.95;8.95;;;;;;;;;;5059032;28;20036;-81
2021/09/22 01:24:21;;;;;;;12.52;9.20;;;;;;;;;;5058854;28;20025;-82
2021/09/22 01:26:48;;;;;;;13.07;9.70;;;;;;;;;;5057518;28;20025;-82
2021/09/22 01:29:15;;;;;;;13.93;9.00;;;;;;;;;;5058552;28;20021;-81
2021/09/22 01:31:41;;;;;;;11.52;9.35;;;;;;;;;;5058827;28;20029;-81
2021/09/22 01:34:09;;;;;;;12.73;9.30;;;;;;;;;;5057716;28;20033;-81
2021/09/22 01:36:35;;;;;;;12.48;9.07;;;;;;;;;;5058488;28;20029;-81
2021/09/22 01:39:01;;;;;;;13.80;9.45;;;;;;;;;;5058499;28;20021;-81
2021/09/22 01:41:27;;;;;;;14.77;9.98;;;;;;;;;;5058461;28;20403;-81
2021/09/22 01:43:54;;;;;;;14.63;10.50;;;;;;;;;;5057987;28;20328;-81
2021/09/22 01:46:20;;;;;;;14.93;10.10;;;;;;;;;;5058507;28;20033;-81
2021/09/22 01:48:46;;;;;;;14.75;9.50;;;;;;;;;;5057961;28;20021;-81
2021/09/22 01:51:13;;;;;;;23.13;10.35;;;;;;;;;;5057196;28;20349;-81
2021/09/22 01:53:39;;;;;;;14.50;9.77;;;;;;;;;;5058051;28;20021;-81
2021/09/22 01:56:05;;;;;;;13.32;9.80;;;;;;;;;;5058026;28;20017;-81
2021/09/22 01:58:32;;;;;;;14.77;10.32;;;;;;;;;;5058095;28;20040;-81
2021/09/22 02:01:00;;;;;;;12.85;9.90;;;;;;;;;;5058224;28;20038;-81
2021/09/22 02:03:26;;;;;;;14.43;10.15;;;;;;;;;;5058115;28;20021;-81
2021/09/22 02:05:52;;;;;;;14.77;10.32;;;;;;;;;;5057969;28;20025;-81
2021/09/22 02:08:18;;;;;;;14.75;10.43;;;;;;;;;;5056798;28;20025;-81
2021/09/22 02:10:44;;;;;;;14.00;10.88;;;;;;;;;;5056837;28;20025;-80
2021/09/22 02:13:11;;;;;;;20.38;10.93;;;;;;;;;;5057679;28;20112;-81
2021/09/22 02:15:37;;;;;;;13.45;10.00;;;;;;;;;;5057992;28;20104;-81
2021/09/22 02:18:03;;;;;;;12.98;9.30;;;;;;;;;;5057651;28;20407;-81
2021/09/22 02:20:29;;;;;;;14.38;10.07;;;;;;;;;;5056601;28;20033;-80
2021/09/22 02:22:55;;;;;;;15.40;10.30;;;;;;;;;;5057917;28;20025;-81
2021/09/22 02:25:21;;;;;;;14.82;10.85;;;;;;;;;;5057583;28;20029;-81
2021/09/22 02:27:48;;;;;;;20.35;11.35;;;;;;;;;;5057133;28;20037;-81
2021/09/22 02:30:17;;;;;;;17.88;12.23;;;;;;;;;;5057393;28;20108;-81
2021/09/22 02:32:43;;;;;;;18.50;12.23;;;;;;;;;;5057728;28;20296;-81
2021/09/22 02:35:10;;;;;;;17.38;11.93;;;;;;;;;;5057585;28;20090;-81
2021/09/22 02:37:36;;;;;;;21.35;11.80;;;;;;;;;;5057649;28;20063;-81
2021/09/22 02:40:04;;;;;;;16.85;12.13;;;;;;;;;;5057348;28;20104;-81
2021/09/22 02:42:30;;;;;;;18.73;12.43;;;;;;;;;;5057256;28;20033;-81
2021/09/22 02:44:56;;;;;;;18.98;12.23;;;;;;;;;;5056257;28;20082;-81
2021/09/22 02:47:22;;;;;;;17.55;11.98;;;;;;;;;;5057342;28;20033;-81
2021/09/22 02:49:48;;;;;;;19.17;12.90;;;;;;;;;;5057339;28;20063;-81
2021/09/22 02:52:14;;;;;;;17.50;12.30;;;;;;;;;;5057333;28;20013;-81
2021/09/22 02:54:40;;;;;;;16.33;11.25;;;;;;;;;;5056041;28;20071;-81
2021/09/22 02:57:07;;;;;;;17.42;11.60;;;;;;;;;;5057173;28;20028;-81
2021/09/22 02:59:33;;;;;;;14.80;12.07;;;;;;;;;;5056985;28;20025;-82
2021/09/22 03:02:01;;;;;;;17.75;11.25;;;;;;;;;;5057020;28;20025;-81
2021/09/22 03:04:27;;;;;;;14.00;10.68;;;;;;;;;;5056927;28;20033;-82
2021/09/22 03:06:53;;;;;;;15.02;10.40;;;;;;;;;;5055940;28;20141;-82
2021/09/22 03:09:20;;;;;;;18.98;11.13;;;;;;;;;;5056531;28;20018;-81
2021/09/22 03:11:47;;;;;;;15.57;11.48;;;;;;;;;;5056942;28;20028;-82
2021/09/22 03:14:13;;;;;;;14.13;10.85;;;;;;;;;;5056631;28;20059;-81
2021/09/22 03:16:39;;;;;;;16.38;11.00;;;;;;;;;;5057130;28;20056;-82
2021/09/22 03:19:05;;;;;;;13.80;10.80;;;;;;;;;;5056761;28;20311;-82
2021/09/22 03:21:31;;;;;;;15.02;11.02;;;;;;;;;;5056838;28;20066;-82
2021/09/22 03:23:57;;;;;;;15.02;10.82;;;;;;;;;;5056972;28;20028;-82
2021/09/22 03:26:25;;;;;;;13.77;10.65;;;;;;;;;;5055654;28;20028;-82
2021/09/22 03:28:51;;;;;;;13.15;10.45;;;;;;;;;;5055670;28;20021;-82
2021/09/22 03:31:17;;;;;;;15.93;11.05;;;;;;;;;;5056764;28;20014;-82
2021/09/22 03:33:43;;;;;;;13.10;10.15;;;;;;;;;;5056862;28;20047;-81
2021/09/22 03:36:10;;;;;;;14.25;11.10;;;;;;;;;;5056567;28;20071;-81
2021/09/22 03:38:37;;;;;;;14.73;10.30;;;;;;;;;;5056682;28;20438;-81
2021/09/22 03:41:04;;;;;;;12.88;9.95;;;;;;;;;;5055614;28;20100;-81
2021/09/22 03:43:30;;;;;;;12.73;10.10;;;;;;;;;;5056361;28;20039;-81
2021/09/22 03:45:56;;;;;;;16.10;9.98;;;;;;;;;;5055506;28;20323;-81
2021/09/22 03:48:22;;;;;;;12.32;10.00;;;;;;;;;;5056398;28;20032;-81
2021/09/22 03:50:48;;;;;;;13.57;10.75;;;;;;;;;;5056777;28;20033;-82
2021/09/22 03:53:19;;;;;;;13.43;10.35;;;;;;;;;;5056598;28;20017;-81
2021/09/22 03:55:46;;;;;;;12.98;10.45;;;;;;;;;;5056617;28;20025;-80
2021/09/22 03:58:12;;;;;;;13.32;10.25;;;;;;;;;;5056249;28;20029;-81
2021/09/22 04:00:38;;;;;;;13.57;10.20;;;;;;;;;;5056090;28;20029;-82
2021/09/22 04:03:04;;;;;;;13.68;10.70;;;;;;;;;;5056711;28;20036;-82
2021/09/22 04:05:31;;;;;;;12.43;9.35;;;;;;;;;;5055332;28;20044;-81
2021/09/22 04:07:57;;;;;;;11.40;9.65;;;;;;;;;;5056259;28;20033;-81
2021/09/22 04:10:23;;;;;;;14.60;9.70;;;;;;;;;;5055287;28;20422;-81
2021/09/22 04:12:49;;;;;;;12.50;10.27;;;;;;;;;;5055327;28;20024;-82
2021/09/22 04:15:15;;;;;;;12.40;9.82;;;;;;;;;;5056166;28;20043;-81
2021/09/22 04:17:41;;;;;;;12.57;9.93;;;;;;;;;;5056427;28;20330;-82
2021/09/22 04:20:08;;;;;;;13.27;9.20;;;;;;;;;;5056290;28;20116;-81
2021/09/22 04:22:34;;;;;;;12.65;9.60;;;;;;;;;;5057637;28;20127;-81
2021/09/22 04:25:01;;;;;;;11.45;8.90;;;;;;;;;;5059791;28;20029;-81
2021/09/22 04:27:27;;;;;;;12.40;9.32;;;;;;;;;;5059700;28;20430;-81
2021/09/22 04:29:53;;;;;;;12.80;9.27;;;;;;;;;;5059729;28;20079;-81
2021/09/22 04:32:19;;;;;;;13.32;10.13;;;;;;;;;;5059666;28;20402;-83
2021/09/22 04:34:45;;;;;;;15.60;9.35;;;;;;;;;;5059819;28;20470;-83
2021/09/22 04:37:11;;;;;;;13.40;9.77;;;;;;;;;;5059711;28;20422;-83
2021/09/22 04:39:37;;;;;;;16.27;9.68;;;;;;;;;;5059734;28;20147;-80
2021/09/22 04:42:03;;;;;;;19.63;10.02;;;;;;;;;;5059230;28;20032;-79
2021/09/22 04:44:29;;;;;;;10.90;8.50;;;;;;;;;;5066039;28;20057;-79
2021/09/22 04:46:55;;;;;;;18.20;12.40;;;;;;;;;;5078019;28;20403;-79
2021/09/22 04:49:22;;;;;;;11.90;9.57;;;;;;;;;;5079785;28;20021;-79
2021/09/22 04:51:48;;;;;;;13.68;9.65;;;;;;;;;;5079418;28;20115;-80
2021/09/22 04:54:14;;;;;;;11.32;9.35;;;;;;;;;;5079248;28;20352;-79
2021/09/22 04:56:40;;;;;;;15.10;10.00;;;;;;;;;;5079339;28;20083;-79
2021/09/22 04:59:06;;;;;;;15.10;9.50;;;;;;;;;;5079130;28;20036;-80
2021/09/22 05:01:32;;;;;;;14.48;10.77;;;;;;;;;;5078765;28;20025;-79
2021/09/22 05:03:58;;;;;;;14.88;11.60;;;;;;;;;;5078004;28;20067;-80
2021/09/22 05:06:24;;;;;;;16.48;12.38;;;;;;;;;;5077916;28;20364;-79
2021/09/22 05:08:50;;;;;;;15.95;12.70;;;;;;;;;;5077987;28;20033;-79
2021/09/22 05:11:16;;;;;;;15.50;10.32;;;;;;;;;;5079125;28;20020;-80
2021/09/22 05:13:43;;;;;;;12.93;10.25;;;;;;;;;;5078681;28;20025;-80
2021/09/22 05:16:09;;;;;;;15.98;9.43;;;;;;;;;;5078852;28;20017;-80
2021/09/22 05:18:35;;;;;;;13.88;8.63;;;;;;;;;;5077656;28;20135;-79
2021/09/22 05:21:01;;;;;;;11.63;8.57;;;;;;;;;;5078952;28;20024;-80
2021/09/22 05:23:27;;;;;;;13.93;8.60;;;;;;;;;;5077643;28;20047;-80
2021/09/22 05:25:53;;;;;;;10.88;9.38;;;;;;;;;;5077280;28;20033;-80
2021/09/22 05:28:19;;;;;;;11.95;8.85;;;;;;;;;;5078814;28;20031;-79
2021/09/22 05:30:45;;;;;;;10.63;8.15;;;;;;;;;;5078575;28;20074;-79
2021/09/22 05:33:11;;;;;;;15.98;8.95;;;;;;;;;;5078278;28;20020;-79
2021/09/22 05:35:38;;;;;;;12.40;8.25;;;;;;;;;;5078548;28;20070;-79
2021/09/22 05:38:04;;;;;;;12.95;8.85;;;;;;;;;;5078449;28;20414;-80
2021/09/22 05:40:30;;;;;;;11.98;8.60;;;;;;;;;;5078383;28;20316;-80
2021/09/22 05:42:58;;;;;;;10.60;8.55;;;;;;;;;;5078578;28;20066;-79
2021/09/22 05:45:24;;;;;;;11.75;7.88;;;;;;;;;;5077885;28;20139;-80
2021/09/22 05:47:50;;;;;;;11.55;8.60;;;;;;;;;;5078279;28;20082;-79
2021/09/22 05:50:16;;;;;;;14.50;8.90;;;;;;;;;;5078176;28;20319;-79
2021/09/22 05:52:42;;;;;;;11.15;8.35;;;;;;;;;;5078115;28;20417;-79
2021/09/22 05:55:08;;;;;;;11.25;7.57;;;;;;;;;;5078085;28;20051;-79
2021/09/22 05:57:34;;;;;;;9.88;7.88;;;;;;;;;;5078198;28;20031;-79
2021/09/22 06:00:00;;;;;;;12.50;8.27;;;;;;;;;;5076438;28;20111;-79
2021/09/22 06:02:26;;;;;;;11.30;7.95;;;;;;;;;;5078159;28;20029;-79
2021/09/22 06:04:52;;;;;;;13.75;7.95;;;;;;;;;;5076978;28;20078;-79
2021/09/22 06:07:19;;;;;;;11.02;7.63;;;;;;;;;;5077639;28;20066;-79
2021/09/22 06:09:45;;;;;;;12.50;8.18;;;;;;;;;;5077863;28;20021;-79
2021/09/22 06:12:11;;;;;;;10.43;7.25;;;;;;;;;;5077658;28;20059;-79
2021/09/22 06:14:37;;;;;;;9.70;7.35;;;;;;;;;;5077372;28;20468;-79
2021/09/22 06:17:04;;;;;;;11.40;7.47;;;;;;;;;;5077595;28;20039;-80
2021/09/22 06:19:30;;;;;;;11.13;8.05;;;;;;;;;;5077746;28;20024;-79
2021/09/22 06:21:56;;;;;;;9.85;7.28;;;;;;;;;;5077652;28;20115;-79
2021/09/22 06:24:22;;;;;;;9.38;7.53;;;;;;;;;;5077448;28;20050;-79
2021/09/22 06:26:48;;;;;;;9.85;7.25;;;;;;;;;;5077614;28;20056;-80
2021/09/22 06:29:14;;;;;;;10.93;6.63;;;;;;;;;;5077542;28;20021;-79
2021/09/22 06:31:40;;;;;;;9.80;6.60;;;;;;;;;;5075930;28;20433;-80
2021/09/22 06:34:07;;;;;;;9.93;6.75;;;;;;;;;;5077418;28;20029;-80
2021/09/22 06:36:33;;;;;;;10.32;6.75;;;;;;;;;;5077405;28;20146;-79
2021/09/22 06:38:59;;;;;;;8.43;6.35;;;;;;;;;;5077316;28;20020;-79
2021/09/22 06:41:29;;;;;;;11.68;6.90;;;;;;;;;;5076364;28;20385;-79
2021/09/22 06:43:55;;;;;;;9.50;7.00;;;;;;;;;;5076471;28;20090;-80
2021/09/22 06:46:21;;;;;;;10.68;6.13;;;;;;;;;;5076900;28;20031;-79
2021/09/22 06:48:47;;;;;;;10.52;6.18;;;;;;;;;;5077348;28;20402;-79
2021/09/22 06:51:17;;;;;;;10.60;5.60;;;;;;;;;;5077200;28;20395;-80
2021/09/22 06:53:43;;;;;;;8.82;6.20;;;;;;;;;;5075708;28;20028;-80
2021/09/22 06:56:09;;;;;;;10.70;6.82;;;;;;;;;;5077264;28;20105;-79
2021/09/22 06:58:35;;;;;;;8.68;6.18;;;;;;;;;;5077186;28;20035;-79
2021/09/22 07:01:02;;;;;;;11.02;6.00;;;;;;;;;;5075554;28;20071;-80
2021/09/22 07:03:28;;;;;;;9.55;6.05;;;;;;;;;;5076977;28;20433;-80
2021/09/22 07:05:54;;;;;;;9.98;6.90;;;;;;;;;;5077004;28;20326;-80
2021/09/22 07:08:20;;;;;;;9.10;6.20;;;;;;;;;;5076954;28;20054;-80
2021/09/22 07:10:47;;;;;;;8.50;5.72;;;;;;;;;;5077119;28;20017;-80
2021/09/22 07:13:13;;;;;;;7.97;5.97;;;;;;;;;;5076466;28;20028;-79
2021/09/22 07:15:39;;;;;;;9.50;6.00;;;;;;;;;;5076885;28;20019;-80
2021/09/22 07:18:05;;;;;;;10.23;6.95;;;;;;;;;;5076885;28;20029;-80
2021/09/22 07:20:32;;;;;;;8.88;6.28;;;;;;;;;;5077025;28;20104;-80
2021/09/22 07:22:58;;;;;;;8.65;6.32;;;;;;;;;;5076868;28;20020;-80
2021/09/22 07:25:24;;;;;;;10.95;6.57;;;;;;;;;;5076925;28;20035;-80
2021/09/22 07:27:50;;;;;;;7.82;6.03;;;;;;;;;;5076686;28;20025;-80
2021/09/22 07:30:16;;;;;;;8.50;5.93;;;;;;;;;;5076859;28;20021;-79
2021/09/22 07:32:49;;;;;;;10.43;6.53;;;;;;;;;;5076750;28;20045;-79
2021/09/22 07:35:15;;;;;;;12.75;6.53;;;;;;;;;;5076858;28;20047;-79
2021/09/22 07:37:41;;;;;;;9.52;6.80;;;;;;;;;;5076802;28;20029;-78
2021/09/22 07:40:08;;;;;;;11.23;6.82;;;;;;;;;;5076680;28;20029;-78
2021/09/22 07:42:35;;;;;;;7.95;5.80;;;;;;;;;;5076708;28;20033;-78
2021/09/22 07:45:01;;;;;;;11.75;7.25;;;;;;;;;;5076357;28;20091;-78
2021/09/22 07:47:28;;;;;;;12.07;7.07;;;;;;;;;;5076494;28;20163;-78
2021/09/22 07:49:54;;;;;;;8.68;6.50;;;;;;;;;;5076876;28;20025;-78
2021/09/22 07:52:20;;;;;;;8.38;6.90;;;;;;;;;;5076540;28;20017;-78
2021/09/22 07:54:46;;;;;;;13.75;7.07;;;;;;;;;;5076634;28;20013;-78
2021/09/22 07:57:12;;;;;;;12.77;7.15;;;;;;;;;;5079877;28;20027;-78
2021/09/22 07:59:39;;;;;;;8.90;7.20;;;;;;;;;;5080243;28;20410;-78
2021/09/22 08:02:05;;;;;;;10.68;6.63;;;;;;;;;;5080210;28;20474;-78
2021/09/22 08:04:31;;;;;;;9.75;6.90;;;;;;;;;;5080387;28;20028;-78
2021/09/22 08:06:59;;;;;;;13.40;7.20;;;;;;;;;;5080034;28;20054;-78
2021/09/22 08:09:26;;;;;;;9.23;7.20;;;;;;;;;;5080336;28;20356;-78
2021/09/22 08:11:52;;;;;;;9.55;6.82;;;;;;;;;;5080158;28;20047;-78
2021/09/22 08:14:18;;;;;;;10.73;7.20;;;;;;;;;;5079826;28;20100;-78
2021/09/22 08:16:45;;;;;;;11.38;7.95;;;;;;;;;;5080021;28;20078;-78
2021/09/22 08:19:12;;;;;;;12.73;7.72;;;;;;;;;;5080039;28;20119;-78
2021/09/22 08:21:38;;;;;;;11.40;7.65;;;;;;;;;;5080075;28;20024;-78
2021/09/22 08:24:04;;;;;;;12.75;8.40;;;;;;;;;;5079884;28;20024;-78
2021/09/22 08:26:30;;;;;;;11.65;7.78;;;;;;;;;;5079774;28;20032;-78
2021/09/22 08:28:57;;;;;;;12.23;7.60;;;;;;;;;;5079886;28;20095;-78
2021/09/22 08:31:23;;;;;;;15.95;7.88;;;;;;;;;;5078284;28;20123;-78
2021/09/22 08:33:49;;;;;;;11.23;8.15;;;;;;;;;;5079813;28;20021;-77
2021/09/22 08:36:15;;;;;;;14.05;8.02;;;;;;;;;;5079620;28;20468;-78
2021/09/22 08:38:41;;;;;;;14.30;7.72;;;;;;;;;;5079696;28;20039;-78
2021/09/22 08:41:07;;;;;;;11.88;7.68;;;;;;;;;;5079683;28;20094;-78
2021/09/22 08:43:34;;;;;;;9.00;7.45;;;;;;;;;;5078248;28;20044;-78
2021/09/22 08:46:00;;;;;;;11.38;7.70;;;;;;;;;;5079427;28;20187;-78
2021/09/22 08:48:26;;;;;;;13.82;7.97;;;;;;;;;;5079378;28;20020;-78
2021/09/22 08:50:54;;;;;;;10.63;8.40;;;;;;;;;;5079583;28;20012;-78
2021/09/22 08:53:20;;;;;;;11.73;7.97;;;;;;;;;;5079539;28;20048;-78
2021/09/22 08:55:46;;;;;;;15.27;10.45;;;;;;;;;;5079418;28;20043;-78
2021/09/22 08:58:12;;;;;;;14.80;11.65;;;;;;;;;;5078200;28;20048;-78
2021/09/22 09:00:38;;;;;;;16.00;10.18;;;;;;;;;;5079193;28;20032;-78
2021/09/22 09:03:04;;;;;;;13.02;9.77;;;;;;;;;;5079200;28;20032;-78
2021/09/22 09:05:31;;;;;;;16.17;9.07;;;;;;;;;;5079426;28;20296;-78
2021/09/22 09:07:58;;;;;;;17.45;10.05;;;;;;;;;;5078242;28;20422;-79
2021/09/22 09:10:26;;;;;;;13.43;10.05;;;;;;;;;;5079002;28;20020;-78
2021/09/22 09:13:03;;;;;;;16.92;10.20;;;;;;;;;;5079104;28;20080;-78
2021/09/22 09:15:40;;;;;;;14.73;9.70;;;;;;;;;;5078472;28;20029;-78
2021/09/22 09:18:33;;;;;;;12.68;9.95;;;;;;;;;;5079213;28;20059;-78
2021/09/22 09:21:00;;;;;;;15.93;11.10;;;;;;;;;;5077746;28;20372;-78
2021/09/22 09:23:27;;;;;;;12.10;10.07;;;;;;;;;;5079043;28;20311;-78
2021/09/22 09:26:00;;;;;;;15.70;11.57;;;;;;;;;;5078849;28;20100;-79
2021/09/22 09:28:30;;;;;;;15.00;11.50;;;;;;;;;;5078884;28;20048;-78
2021/09/22 09:31:00;;;;;;;13.85;9.55;;;;;;;;;;5078778;28;20028;-78
2021/09/22 09:33:36;;;;;;;15.98;10.20;;;;;;;;;;5078688;28;20024;-78
2021/09/22 09:36:19;;;;;;;16.38;9.70;;;;;;;;;;5078514;28;20028;-78
2021/09/22 09:38:52;;;;;;;13.38;10.38;;;;;;;;;;5078487;28;20020;-78
2021/09/22 09:41:29;;;;;;;15.60;10.80;;;;;;;;;;5077367;28;20028;-80
2021/09/22 09:43:55;;;;;;;15.80;10.68;;;;;;;;;;5078091;28;20446;-77
2021/09/22 09:46:24;;;;;;;15.40;11.40;;;;;;;;;;5077278;28;20090;-78
2021/09/22 09:48:57;;;;;;;14.82;10.73;;;;;;;;;;5078086;28;20030;-78
2021/09/22 09:51:30;;;;;;;15.15;11.65;;;;;;;;;;5078358;28;20020;-78
2021/09/22 09:54:04;;;;;;;19.42;11.27;;;;;;;;;;5078171;28;20086;-78
2021/09/22 09:56:32;;;;;;;17.13;10.80;;;;;;;;;;5078063;28;20017;-78
2021/09/22 09:58:58;;;;;;;12.48;10.27;;;;;;;;;;5076742;28;20497;-78
2021/09/22 10:01:35;;;;;;;14.65;11.15;;;;;;;;;;5078027;28;20045;-78
2021/09/22 10:04:01;;;;;;;13.65;11.07;;;;;;;;;;5078179;28;20042;-78
2021/09/22 10:06:27;;;;;;;16.52;11.60;;;;;;;;;;5078056;28;20055;-78
2021/09/22 10:08:53;;;;;;;21.10;15.43;;;;;;;;;;5077913;28;20059;-78
2021/09/22 10:11:19;;;;;;;14.40;11.20;;;;;;;;;;5076974;28;20378;-77
2021/09/22 10:13:45;;;;;;;17.38;11.40;;;;;;;;;;5077537;28;20120;-79
2021/09/22 10:16:11;;;;;;;14.00;11.60;;;;;;;;;;5077623;28;20090;-78
2021/09/22 10:18:37;;;;;;;16.02;10.63;;;;;;;;;;5077743;28;20036;-78
2021/09/22 10:21:03;;;;;;;13.65;11.00;;;;;;;;;;5077703;28;20039;-78
2021/09/22 10:23:30;;;;;;;17.33;11.48;;;;;;;;;;5076467;28;20073;-78
2021/09/22 10:25:56;;;;;;;16.30;11.95;;;;;;;;;;5077394;28;20032;-77
2021/09/22 10:28:36;;;;;;;16.15;11.43;;;;;;;;;;5077431;28;20025;-78
2021/09/22 10:31:02;;;;;;;15.95;11.18;;;;;;;;;;5077706;28;20031;-78
2021/09/22 10:33:29;;;;;;;14.30;11.10;;;;;;;;;;5077639;28;20028;-78
2021/09/22 10:35:59;;;;;;;14.65;11.80;;;;;;;;;;5077490;28;20048;-78
2021/09/22 10:38:28;;;;;;;16.40;11.65;;;;;;;;;;5077469;28;20070;-78
2021/09/22 10:40:56;;;;;;;14.63;11.45;;;;;;;;;;5077353;28;20047;-78
2021/09/22 10:43:26;;;;;;;14.55;11.57;;;;;;;;;;5076963;28;20031;-78
2021/09/22 10:46:11;;;;;;;16.23;11.90;;;;;;;;;;5077394;28;20141;-78
2021/09/22 10:48:39;;;;;;;19.08;12.70;;;;;;;;;;5076138;28;20031;-78
2021/09/22 10:51:09;;;;;;;15.98;11.93;;;;;;;;;;5077192;28;20346;-78
2021/09/22 10:53:40;;;;;;;15.88;12.30;;;;;;;;;;5076190;28;20043;-78
2021/09/22 10:56:16;;;;;;;16.15;12.32;;;;;;;;;;5076110;28;20041;-78
2021/09/22 10:58:49;;;;;;;18.23;12.65;;;;;;;;;;5077419;28;20032;-78
2021/09/22 11:01:33;;;;;;;18.77;12.27;;;;;;;;;;5077045;28;20055;-78
2021/09/22 11:04:00;;;;;;;16.25;12.32;;;;;;;;;;5077046;28;20020;-78
2021/09/22 11:06:45;;;;;;;19.65;13.57;;;;;;;;;;5077090;28;20024;-78
2021/09/22 11:09:11;;;;;;;15.55;12.32;;;;;;;;;;5075870;28;20032;-78
2021/09/22 11:11:55;;;;;;;17.95;14.02;;;;;;;;;;5077325;28;20070;-78
2021/09/22 11:14:30;;;;;;;15.20;12.15;;;;;;;;;;5075678;28;20467;-78
2021/09/22 11:16:57;;;;;;;14.57;11.35;;;;;;;;;;5075940;28;20036;-79
2021/09/22 11:19:24;;;;;;;18.38;12.77;;;;;;;;;;5076854;28;20024;-78
2021/09/22 11:21:50;;;;;;;17.27;12.77;;;;;;;;;;5076943;28;20064;-78
2021/09/22 11:24:18;;;;;;;17.60;13.18;;;;;;;;;;5075792;28;20032;-79
2021/09/22 11:26:52;;;;;;;19.33;14.23;;;;;;;;;;5076011;28;20078;-78
2021/09/22 11:29:35;;;;;;;19.30;14.82;;;;;;;;;;5076974;28;20024;-78
2021/09/22 11:32:02;;;;;;;19.30;13.98;;;;;;;;;;5080231;28;20044;-79
2021/09/22 11:34:29;;;;;;;17.85;14.07;;;;;;;;;;5080900;28;20099;-78
2021/09/22 11:37:06;;;;;;;18.25;13.85;;;;;;;;;;5080842;28;20059;-78
2021/09/22 11:39:32;;;;;;;16.60;12.77;;;;;;;;;;5080952;28;20028;-78
2021/09/22 11:41:58;;;;;;;17.30;12.85;;;;;;;;;;5080786;28;20020;-78
2021/09/22 11:44:32;;;;;;;17.58;13.63;;;;;;;;;;5079273;28;20098;-78
2021/09/22 11:46:59;;;;;;;17.58;12.52;;;;;;;;;;5080815;28;20033;-78
2021/09/22 11:49:32;;;;;;;15.65;13.00;;;;;;;;;;5080883;28;20017;-78
2021/09/22 11:52:13;;;;;;;17.42;12.98;;;;;;;;;;5080686;28;20024;-78
2021/09/22 11:54:47;;;;;;;17.52;12.40;;;;;;;;;;5080458;28;20035;-78
2021/09/22 11:57:15;;;;;;;17.80;13.60;;;;;;;;;;5080370;28;20020;-78
2021/09/22 11:59:43;;;;;;;17.77;12.88;;;;;;;;;;5079355;28;20036;-78
2021/09/22 12:02:09;;;;;;;17.25;13.38;;;;;;;;;;5080411;28;20032;-78
2021/09/22 12:04:37;;;;;;;16.63;13.18;;;;;;;;;;5080249;28;20024;-78
2021/09/22 12:07:04;;;;;;;18.20;13.93;;;;;;;;;;5080174;28;20055;-78
2021/09/22 12:09:39;;;;;;;18.38;12.88;;;;;;;;;;5079075;28;20032;-78
2021/09/22 12:12:06;;;;;;;18.02;13.10;;;;;;;;;;5080131;28;20112;-78
2021/09/22 12:14:32;;;;;;;16.83;13.18;;;;;;;;;;5078798;28;20067;-78
2021/09/22 12:17:05;;;;;;;20.77;13.77;;;;;;;;;;5080112;28;20123;-78
2021/09/22 12:19:32;;;;;;;16.63;13.38;;;;;;;;;;5080024;28;20031;-78
2021/09/22 12:21:58;;;;;;;17.60;13.32;;;;;;;;;;5079069;28;20025;-78
2021/09/22 12:24:25;;;;;;;19.63;13.38;;;;;;;;;;5073056;28;20035;-78
2021/09/22 12:26:52;;;;;;;18.50;13.80;;;;;;;;;;5061736;28;20041;-80
2021/09/22 12:29:20;;;;;;;17.17;14.05;;;;;;;;;;5059998;28;20104;-78
2021/09/22 12:31:46;;;;;;;17.38;14.32;;;;;;;;;;5059732;28;20151;-78
2021/09/22 12:34:22;;;;;;;19.05;15.25;;;;;;;;;;5059758;28;20067;-78
2021/09/22 12:36:48;;;;;;;19.77;15.10;;;;;;;;;;5059702;28;20049;-78
2021/09/22 12:39:18;;;;;;;19.90;15.38;;;;;;;;;;5058505;28;20052;-78
2021/09/22 12:42:04;;;;;;;18.33;14.93;;;;;;;;;;5058021;28;20100;-78
2021/09/22 12:44:31;;;;;;;19.80;15.30;;;;;;;;;;5058997;28;20052;-77
2021/09/22 12:46:57;;;;;;;19.45;14.98;;;;;;;;;;5059286;28;20433;-78
2021/09/22 12:49:24;;;;;;;18.80;15.50;;;;;;;;;;5059415;28;20029;-78
2021/09/22 12:51:51;;;;;;;19.35;15.13;;;;;;;;;;5058591;28;20041;-78
2021/09/22 12:54:18;;;;;;;18.48;15.45;;;;;;;;;;5058452;28;20029;-80
2021/09/22 12:56:44;;;;;;;22.27;16.23;;;;;;;;;;5059446;28;20300;-78
2021/09/22 12:59:17;;;;;;;20.70;15.82;;;;;;;;;;5059163;28;20017;-78
2021/09/22 13:01:48;;;;;;;20.65;15.65;;;;;;;;;;5058157;28;20415;-78
2021/09/22 13:04:22;;;;;;;19.40;15.05;;;;;;;;;;5059107;28;20028;-78
2021/09/22 13:06:58;;;;;;;18.45;14.52;;;;;;;;;;5058083;28;20052;-78
2021/09/22 13:09:34;;;;;;;17.80;13.70;;;;;;;;;;5057962;28;20025;-78
2021/09/22 13:12:00;;;;;;;20.02;14.55;;;;;;;;;;5057949;28;20021;-78
2021/09/22 13:14:35;;;;;;;18.17;14.00;;;;;;;;;;5058703;28;20032;-78
2021/09/22 13:17:01;;;;;;;18.60;13.55;;;;;;;;;;5058855;28;20078;-78
2021/09/22 13:19:28;;;;;;;16.77;13.48;;;;;;;;;;5058839;28;20028;-78
2021/09/22 13:21:56;;;;;;;16.65;13.75;;;;;;;;;;5058985;28;20029;-78
2021/09/22 13:24:23;;;;;;;18.92;14.63;;;;;;;;;;5057815;28;20159;-78
2021/09/22 13:26:50;;;;;;;18.00;14.00;;;;;;;;;;5058778;28;20036;-78
2021/09/22 13:29:17;;;;;;;18.02;14.00;;;;;;;;;;5058575;28;20017;-78
2021/09/22 13:31:53;;;;;;;16.85;13.32;;;;;;;;;;5057592;28;20489;-78
2021/09/22 13:34:21;;;;;;;18.73;14.98;;;;;;;;;;5058568;28;20031;-78
2021/09/22 13:36:47;;;;;;;19.88;14.25;;;;;;;;;;5058556;28;20415;-77
2021/09/22 13:39:14;;;;;;;18.15;13.52;;;;;;;;;;5058705;28;20119;-78
2021/09/22 13:41:40;;;;;;;16.63;12.55;;;;;;;;;;5058515;28;20025;-81
2021/09/22 13:44:08;;;;;;;15.55;12.50;;;;;;;;;;5058058;28;20333;-78
2021/09/22 13:46:34;;;;;;;30.70;21.80;;;;;;;;;;5057298;28;20108;-78
2021/09/22 13:49:01;;;;;;;26.23;19.98;;;;;;;;;;5058745;28;20033;-78
2021/09/22 13:51:27;;;;;;;20.30;16.40;;;;;;;;;;5058410;28;20021;-78
2021/09/22 13:53:53;;;;;;;19.27;15.93;;;;;;;;;;5056895;28;20063;-78
2021/09/22 13:56:20;;;;;;;22.17;16.77;;;;;;;;;;5058193;28;20021;-79
2021/09/22 13:58:46;;;;;;;25.27;19.02;;;;;;;;;;5058089;28;20048;-78
2021/09/22 14:01:13;;;;;;;23.42;17.02;;;;;;;;;;5058225;28;20311;-79
2021/09/22 14:03:39;;;;;;;17.30;12.98;;;;;;;;;;5057303;28;20044;-79
2021/09/22 14:06:06;;;;;;;14.95;12.80;;;;;;;;;;5058333;28;20025;-78
2021/09/22 14:08:33;;;;;;;20.67;16.73;;;;;;;;;;5058212;28;20025;-78
2021/09/22 14:11:00;;;;;;;19.95;15.48;;;;;;;;;;5057834;28;20021;-79
2021/09/22 14:13:26;;;;;;;17.27;14.50;;;;;;;;;;5056941;28;20029;-79
2021/09/22 14:15:53;;;;;;;21.60;15.23;;;;;;;;;;5056787;28;20026;-78
2021/09/22 14:18:19;;;;;;;16.05;13.23;;;;;;;;;;5057874;28;20024;-78
2021/09/22 14:20:47;;;;;;;19.15;15.30;;;;;;;;;;5057836;28;20039;-78
2021/09/22 14:23:13;;;;;;;18.38;15.00;;;;;;;;;;5056799;28;20123;-78
2021/09/22 14:25:41;;;;;;;17.52;13.77;;;;;;;;;;5057630;28;20020;-78